Time;durP1;ratioP1;P1;durP2;ratioP2;P2;SDS_P1;SDS_P2;PMS_P1;PMS_P2;Temp;Humidity;BMP_temperature;BMP_pressure;BME280_temperature;BME280_humidity;BME280_pressure;Samples;Min_cycle;Max_cycle;Signal;HPM_P1;HPM_P2
2023/12/28 00:00:25;;;;;;;1999.90;999.90;;;;;;;1.12;75.41;97437.69;5076838;28;20056;-68
2023/12/28 00:02:53;;;;;;;1999.90;999.90;;;;;;;1.21;76.35;97448.09;5076607;28;20135;-64
2023/12/28 00:05:20;;;;;;;1999.90;999.90;;;;;;;1.12;75.70;97453.16;5076299;28;20406;-64
2023/12/28 00:07:47;;;;;;;1999.90;999.90;;;;;;;1.11;75.80;97449.69;5076388;28;20049;-64
2023/12/28 00:10:14;;;;;;;1999.90;999.90;;;;;;;1.06;76.42;97464.25;5076863;28;20048;-66
2023/12/28 00:12:41;;;;;;;1999.90;999.90;;;;;;;1.08;76.71;97467.69;5076213;28;20510;-65
2023/12/28 00:15:09;;;;;;;1999.90;999.90;;;;;;;1.14;76.75;97472.06;5076166;28;20056;-65
2023/12/28 00:17:38;;;;;;;1999.90;999.90;;;;;;;1.17;76.72;97469.53;5076332;28;20098;-64
2023/12/28 00:20:06;;;;;;;1999.90;999.90;;;;;;;1.16;76.66;97472.97;5076071;28;20497;-67
2023/12/28 00:22:33;;;;;;;1999.90;999.90;;;;;;;1.12;76.83;97471.19;5076142;28;20478;-66
2023/12/28 00:25:00;;;;;;;1999.90;999.90;;;;;;;1.15;77.14;97488.41;5076073;28;20051;-69
2023/12/28 00:27:26;;;;;;;1999.90;999.90;;;;;;;1.14;77.17;97487.53;5075969;28;20402;-67
2023/12/28 00:29:53;;;;;;;1999.90;999.90;;;;;;;1.20;77.37;97489.38;5075891;28;20506;-65
2023/12/28 00:32:20;;;;;;;1999.90;999.90;;;;;;;1.17;77.29;97495.31;5075973;28;20076;-66
2023/12/28 00:34:49;;;;;;;1999.90;999.90;;;;;;;1.19;77.02;97497.91;5075961;28;20136;-65
2023/12/28 00:37:16;;;;;;;1999.90;999.90;;;;;;;1.12;77.10;97504.72;5076176;28;20083;-66
2023/12/28 00:39:44;;;;;;;1999.90;999.90;;;;;;;1.06;78.13;97499.44;5075845;28;20087;-67
2023/12/28 00:42:12;;;;;;;1999.90;999.90;;;;;;;1.10;78.68;97502.09;5075711;28;20049;-64
2023/12/28 00:44:40;;;;;;;1999.90;999.90;;;;;;;1.19;79.18;97505.66;5075713;28;20402;-67
2023/12/28 00:47:07;;;;;;;1999.90;999.90;;;;;;;1.29;78.57;97507.53;5075746;28;20048;-64
2023/12/28 00:49:35;;;;;;;1999.90;999.90;;;;;;;1.31;77.83;97503.25;5075597;28;20122;-63
2023/12/28 00:52:03;;;;;;;1999.90;999.90;;;;;;;1.32;76.76;97502.41;5075522;28;20106;-66
2023/12/28 00:54:30;;;;;;;1999.90;999.90;;;;;;;1.27;76.02;97504.06;5075600;28;20068;-66
2023/12/28 00:56:57;;;;;;;1999.90;999.90;;;;;;;1.18;76.74;97503.94;5075424;28;20401;-63
2023/12/28 00:59:24;;;;;;;1999.90;999.90;;;;;;;1.11;76.87;97505.53;5075610;28;20045;-65
2023/12/28 01:01:51;;;;;;;1999.90;999.90;;;;;;;1.03;77.58;97507.13;5075176;28;20121;-65
2023/12/28 01:04:18;;;;;;;1999.90;999.90;;;;;;;1.00;77.53;97503.66;5074525;28;20083;-67
2023/12/28 01:06:45;;;;;;;1999.90;999.90;;;;;;;0.92;77.67;97502.69;5075300;28;20489;-65
2023/12/28 01:09:13;;;;;;;1999.90;999.90;;;;;;;0.89;78.69;97512.94;5075336;28;20431;-66
2023/12/28 01:11:41;;;;;;;1999.90;999.90;;;;;;;0.84;79.69;97504.28;5075176;28;20045;-68
2023/12/28 01:14:08;;;;;;;1999.90;999.90;;;;;;;0.80;80.25;97505.94;5075278;28;20048;-64
2023/12/28 01:16:35;;;;;;;1999.90;999.90;;;;;;;0.79;80.23;97509.34;5075081;28;20135;-66
2023/12/28 01:19:02;;;;;;;1999.90;999.90;;;;;;;0.87;80.01;97512.03;5075192;28;20053;-67
2023/12/28 01:21:29;;;;;;;1999.90;999.90;;;;;;;0.83;80.37;97502.53;5075086;28;20052;-69
2023/12/28 01:23:56;;;;;;;1999.90;999.90;;;;;;;0.80;80.81;97498.19;5075116;28;20059;-67
2023/12/28 01:26:24;;;;;;;1999.90;999.90;;;;;;;0.84;81.76;97504.28;5075026;28;20044;-68
2023/12/28 01:28:51;;;;;;;1999.90;999.90;;;;;;;0.97;81.19;97502.75;5075005;28;20044;-66
2023/12/28 01:31:18;;;;;;;1999.90;999.90;;;;;;;1.04;80.45;97501.13;5074804;28;20044;-64
2023/12/28 01:33:45;;;;;;;1999.90;999.90;;;;;;;1.05;79.47;97495.16;5074729;28;20391;-67
2023/12/28 01:36:18;;;;;;;1999.90;999.90;;;;;;;0.98;79.32;97500.22;5074850;28;20059;-64
2023/12/28 01:38:45;;;;;;;1999.90;999.90;;;;;;;0.93;79.75;97495.84;5074556;28;20044;-67
2023/12/28 01:41:15;;;;;;;1999.90;999.90;;;;;;;0.91;80.19;97498.38;5074618;28;20120;-67
2023/12/28 01:43:43;;;;;;;1999.90;999.90;;;;;;;1.05;81.30;97495.16;5074708;28;20482;-64
2023/12/28 01:46:15;;;;;;;1999.90;999.90;;;;;;;1.06;80.45;97500.34;5074637;28;20154;-67
2023/12/28 01:48:43;;;;;;;1999.90;999.90;;;;;;;1.03;80.04;97508.00;5074599;28;20044;-63
2023/12/28 01:51:10;;;;;;;1999.90;999.90;;;;;;;1.03;79.47;97501.97;5074649;28;20075;-65
2023/12/28 01:53:38;;;;;;;1999.90;999.90;;;;;;;0.93;80.08;97493.25;5074337;28;20053;-65
2023/12/28 01:56:06;;;;;;;1999.90;999.90;;;;;;;0.98;80.17;97502.78;5074398;28;20529;-64
2023/12/28 01:58:34;;;;;;;1999.90;999.90;;;;;;;0.98;79.90;97500.22;5074223;28;20383;-63
2023/12/28 02:01:02;;;;;;;1999.90;999.90;;;;;;;0.87;79.89;97506.88;5074301;28;20044;-65
2023/12/28 02:03:30;;;;;;;1999.90;999.90;;;;;;;0.84;80.18;97501.72;5074149;28;20075;-66
2023/12/28 02:05:58;;;;;;;1999.90;999.90;;;;;;;0.78;80.28;97505.03;5074182;28;20044;-65
2023/12/28 02:08:25;;;;;;;1999.90;999.90;;;;;;;0.77;79.64;97505.88;5074069;28;20041;-67
2023/12/28 02:10:52;;;;;;;1999.90;999.90;;;;;;;0.70;79.61;97504.91;5074227;28;20079;-65
2023/12/28 02:13:19;;;;;;;1999.90;999.90;;;;;;;0.57;80.44;97503.81;5073960;28;20102;-66
2023/12/28 02:15:50;;;;;;;1999.90;999.90;;;;;;;0.52;81.30;97502.00;5074071;28;20048;-64
2023/12/28 02:18:23;;;;;;;1999.90;999.90;;;;;;;0.48;82.09;97498.53;5074048;28;20071;-66
2023/12/28 02:20:50;;;;;;;1999.90;999.90;;;;;;;0.48;82.91;97498.53;5073875;28;20135;-67
2023/12/28 02:23:17;;;;;;;1999.90;999.90;;;;;;;0.49;82.44;97495.97;5073900;28;20087;-66
2023/12/28 02:25:46;;;;;;;1999.90;999.90;;;;;;;0.49;82.74;97500.25;5073860;28;20044;-68
2023/12/28 02:28:13;;;;;;;1999.90;999.90;;;;;;;0.51;83.39;97501.13;5073706;28;20110;-65
2023/12/28 02:30:40;;;;;;;1999.90;999.90;;;;;;;0.50;84.20;97507.13;5073677;28;20139;-64
2023/12/28 02:33:16;;;;;;;1999.90;999.90;;;;;;;0.61;84.96;97512.47;5073537;28;20048;-64
2023/12/28 02:35:47;;;;;;;1999.90;999.90;;;;;;;0.59;84.50;97502.16;5073753;28;20044;-66
2023/12/28 02:38:16;;;;;;;1999.90;999.90;;;;;;;0.65;84.36;97511.69;5073511;28;20054;-67
2023/12/28 02:40:44;;;;;;;1999.90;999.90;;;;;;;0.72;83.87;97508.38;5073458;28;20067;-68
2023/12/28 02:43:13;;;;;;;1999.90;999.90;;;;;;;0.83;84.51;97517.97;5073504;28;20052;-67
2023/12/28 02:45:40;;;;;;;1999.90;999.90;;;;;;;0.90;83.82;97519.81;5073431;28;20040;-65
2023/12/28 02:48:08;;;;;;;1999.90;999.90;;;;;;;0.92;83.41;97518.16;5073420;28;20080;-67
2023/12/28 02:50:35;;;;;;;1999.90;999.90;;;;;;;0.96;81.68;97514.75;5073306;28;20087;-66
2023/12/28 02:53:03;;;;;;;1999.90;999.90;;;;;;;0.93;81.30;97516.44;5073320;28;20052;-65
2023/12/28 02:55:30;;;;;;;1999.90;999.90;;;;;;;0.91;80.88;97521.56;5073447;28;20053;-65
2023/12/28 02:57:59;;;;;;;1999.90;999.90;;;;;;;0.90;80.91;97524.97;5073140;28;20143;-64
2023/12/28 03:00:28;;;;;;;1999.90;999.90;;;;;;;0.82;81.48;97521.41;5073223;28;20496;-64
2023/12/28 03:02:55;;;;;;;1999.90;999.90;;;;;;;0.76;82.58;97511.88;5073268;28;20146;-62
2023/12/28 03:05:22;;;;;;;1999.90;999.90;;;;;;;0.79;83.06;97517.09;5073222;28;20044;-67
2023/12/28 03:07:49;;;;;;;1999.90;999.90;;;;;;;0.78;82.74;97514.47;5073328;28;20050;-66
2023/12/28 03:10:16;;;;;;;1999.90;999.90;;;;;;;0.77;83.33;97507.56;5073159;28;20045;-64
2023/12/28 03:12:43;;;;;;;1999.90;999.90;;;;;;;0.81;83.11;97501.66;5073092;28;20059;-68
2023/12/28 03:15:10;;;;;;;1999.90;999.90;;;;;;;0.77;83.25;97497.25;5072944;28;20052;-65
2023/12/28 03:17:39;;;;;;;1999.90;999.90;;;;;;;0.71;82.94;97498.91;5073055;28;20127;-65
2023/12/28 03:20:07;;;;;;;1999.90;999.90;;;;;;;0.71;82.80;97492.88;5073012;28;20047;-67
2023/12/28 03:22:34;;;;;;;1999.90;999.90;;;;;;;0.57;82.71;97484.94;5073101;28;20098;-67
2023/12/28 03:25:02;;;;;;;1999.90;999.90;;;;;;;0.50;83.46;97492.56;5072993;28;20486;-66
2023/12/28 03:27:29;;;;;;;1999.90;999.90;;;;;;;0.48;83.90;97498.53;5072447;28;20052;-66
2023/12/28 03:29:56;;;;;;;1999.90;999.90;;;;;;;0.42;84.45;97495.84;5072878;28;20048;-67
2023/12/28 03:32:23;;;;;;;1999.90;999.90;;;;;;;0.39;85.39;97495.78;5073166;28;20127;-66
2023/12/28 03:34:51;;;;;;;1999.90;999.90;;;;;;;0.36;85.64;97501.75;5072877;28;20072;-67
2023/12/28 03:37:18;;;;;;;1999.90;999.90;;;;;;;0.29;86.47;97493.03;5072920;28;20050;-66
2023/12/28 03:39:45;;;;;;;1999.90;999.90;;;;;;;0.32;87.47;97490.53;5072723;28;20048;-63
2023/12/28 03:42:12;;;;;;;1999.90;999.90;;;;;;;0.27;87.18;97493.88;5072744;28;20076;-69
2023/12/28 03:44:39;;;;;;;1999.90;999.90;;;;;;;0.33;87.20;97497.41;5072753;28;20139;-64
2023/12/28 03:47:08;;;;;;;1999.90;999.90;;;;;;;0.43;86.28;97498.44;5072788;28;20076;-65
2023/12/28 03:49:34;;;;;;;1999.90;999.90;;;;;;;0.44;86.27;97502.75;5072842;28;20044;-67
2023/12/28 03:52:03;;;;;;;1999.90;999.90;;;;;;;0.48;86.89;97498.53;5072788;28;20059;-63
2023/12/28 03:54:30;;;;;;;1999.90;999.90;;;;;;;0.53;86.41;97498.59;5072678;28;20088;-65
2023/12/28 03:56:57;;;;;;;1999.90;999.90;;;;;;;0.51;85.84;97493.41;5072814;28;20084;-68
2023/12/28 03:59:24;;;;;;;1999.90;999.90;;;;;;;0.47;85.75;97496.78;5072794;28;20072;-65
2023/12/28 04:01:51;;;;;;;1999.90;999.90;;;;;;;0.50;86.53;97494.25;5072656;28;20048;-67
2023/12/28 04:04:18;;;;;;;1999.90;999.90;;;;;;;0.57;86.15;97498.69;5072545;28;20046;-67
2023/12/28 04:06:45;;;;;;;1999.90;999.90;;;;;;;0.62;85.41;97501.34;5072764;28;20045;-68
2023/12/28 04:09:14;;;;;;;1999.90;999.90;;;;;;;0.54;85.25;97500.34;5072840;28;20056;-64
2023/12/28 04:11:41;;;;;;;1999.90;999.90;;;;;;;0.50;84.89;97500.28;5072747;28;20490;-65
2023/12/28 04:14:09;;;;;;;1999.90;999.90;;;;;;;0.49;84.75;97505.41;5072438;28;20473;-67
2023/12/28 04:16:36;;;;;;;1999.90;999.90;;;;;;;0.41;85.33;97506.97;5072413;28;20048;-64
2023/12/28 04:19:03;;;;;;;1999.90;999.90;;;;;;;0.40;85.59;97511.28;5072279;28;20048;-68
2023/12/28 04:21:30;;;;;;;1999.90;999.90;;;;;;;0.35;85.88;97508.59;5072447;28;20465;-67
2023/12/28 04:23:58;;;;;;;1999.90;999.90;;;;;;;0.31;85.52;97506.81;5072541;28;20056;-65
2023/12/28 04:26:26;;;;;;;1999.90;999.90;;;;;;;0.37;85.27;97517.22;5072452;28;20040;-68
2023/12/28 04:28:53;;;;;;;1999.90;999.90;;;;;;;0.33;85.32;97506.84;5072355;28;20049;-66
2023/12/28 04:31:20;;;;;;;1999.90;999.90;;;;;;;0.32;85.97;97510.25;5072483;28;20606;-68
2023/12/28 04:33:47;;;;;;;1999.90;999.90;;;;;;;0.42;86.36;97513.88;5072504;28;20082;-66
2023/12/28 04:36:14;;;;;;;1999.90;999.90;;;;;;;0.42;86.26;97504.41;5072124;28;20048;-64
2023/12/28 04:38:41;;;;;;;1999.90;999.90;;;;;;;0.45;85.80;97509.63;5072446;28;20056;-64
2023/12/28 04:41:10;;;;;;;1999.90;999.90;;;;;;;0.41;85.69;97517.25;5075817;28;20592;-64
2023/12/28 04:43:39;;;;;;;1999.90;999.90;;;;;;;0.34;85.93;97517.19;5075649;28;20426;-68
2023/12/28 04:46:06;;;;;;;1999.90;999.90;;;;;;;0.28;85.65;97509.34;5075787;28;20052;-65
2023/12/28 04:48:34;;;;;;;1999.90;999.90;;;;;;;0.26;85.50;97511.00;5075728;28;20520;-66
2023/12/28 04:51:04;;;;;;;1999.90;999.90;;;;;;;0.19;85.94;97507.47;5075671;28;20470;-67
2023/12/28 04:53:31;;;;;;;1999.90;999.90;;;;;;;0.25;86.70;97517.00;5075710;28;20048;-67
2023/12/28 04:55:58;;;;;;;1999.90;999.90;;;;;;;0.28;87.35;97508.47;5075644;28;20040;-65
2023/12/28 04:58:25;;;;;;;1999.90;999.90;;;;;;;0.25;86.92;97510.13;5075492;28;20080;-69
2023/12/28 05:00:54;;;;;;;1999.90;999.90;;;;;;;0.23;87.16;97511.81;5075516;28;20044;-66
2023/12/28 05:03:21;;;;;;;1999.90;999.90;;;;;;;0.15;86.83;97513.38;5075426;28;20052;-66
2023/12/28 05:05:48;;;;;;;1999.90;999.90;;;;;;;0.15;87.36;97517.66;5075399;28;20500;-64
2023/12/28 05:08:15;;;;;;;1999.90;999.90;;;;;;;0.15;87.54;97510.78;5075581;28;20076;-65
2023/12/28 05:10:42;;;;;;;1999.90;999.90;;;;;;;0.17;88.85;97509.13;5075321;28;20090;-69
2023/12/28 05:13:10;;;;;;;1999.90;999.90;;;;;;;0.18;89.41;97504.84;5075187;28;20461;-67
2023/12/28 05:15:38;;;;;;;1999.90;999.90;;;;;;;0.22;89.51;97504.94;5075144;28;20480;-65
2023/12/28 05:18:08;;;;;;;1999.90;999.90;;;;;;;0.28;89.96;97506.75;5075451;28;20502;-65
2023/12/28 05:20:36;;;;;;;1999.90;999.90;;;;;;;0.37;90.21;97513.78;5075150;28;20049;-68
2023/12/28 05:23:03;;;;;;;1999.90;999.90;;;;;;;0.41;88.39;97514.69;5075124;28;20041;-66
2023/12/28 05:25:30;;;;;;;1999.90;999.90;;;;;;;0.41;88.14;97514.69;5074969;28;20048;-66
2023/12/28 05:27:58;;;;;;;1999.90;999.90;;;;;;;0.34;88.88;97512.03;5075048;28;20460;-64
2023/12/28 05:30:25;;;;;;;1999.90;999.90;;;;;;;0.34;89.07;97512.03;5074902;28;20505;-62
2023/12/28 05:32:52;;;;;;;1999.90;999.90;;;;;;;0.31;89.17;97511.97;5074908;28;20102;-67
2023/12/28 05:35:20;;;;;;;1999.90;999.90;;;;;;;0.42;89.46;97514.72;5074712;28;20084;-67
2023/12/28 05:37:47;;;;;;;1999.90;999.90;;;;;;;0.52;88.89;97517.47;5074694;28;20505;-66
2023/12/28 05:40:15;;;;;;;1999.90;999.90;;;;;;;0.54;88.37;97510.66;5074563;28;20094;-64
2023/12/28 05:42:42;;;;;;;1999.90;999.90;;;;;;;0.58;87.22;97515.00;5074606;28;20083;-65
2023/12/28 05:45:10;;;;;;;1999.90;999.90;;;;;;;0.46;87.17;97508.81;5074698;28;20102;-64
2023/12/28 05:47:37;;;;;;;1999.90;999.90;;;;;;;0.51;88.18;97506.28;5074554;28;20498;-66
2023/12/28 05:50:05;;;;;;;1999.90;999.90;;;;;;;0.55;87.28;97512.38;5074360;28;20056;-67
2023/12/28 05:52:34;;;;;;;1999.90;999.90;;;;;;;0.55;86.51;97507.22;5074461;28;20079;-69
2023/12/28 05:55:02;;;;;;;1999.90;999.90;;;;;;;0.51;86.28;97514.00;5074434;28;20056;-65
2023/12/28 05:57:30;;;;;;;1999.90;999.90;;;;;;;0.47;86.22;97512.22;5074456;28;20052;-63
2023/12/28 05:59:58;;;;;;;1999.90;999.90;;;;;;;0.45;86.23;97512.19;5074333;28;20128;-67
2023/12/28 06:02:25;;;;;;;1999.90;999.90;;;;;;;0.48;87.18;97513.97;5074215;28;20495;-68
2023/12/28 06:04:53;;;;;;;1999.90;999.90;;;;;;;0.46;87.30;97519.09;5074075;28;20053;-66
2023/12/28 06:07:20;;;;;;;1999.90;999.90;;;;;;;0.41;86.90;97513.00;5074124;28;20049;-66
2023/12/28 06:09:49;;;;;;;1999.90;999.90;;;;;;;0.45;87.34;97517.34;5074254;28;20048;-67
2023/12/28 06:12:16;;;;;;;1999.90;999.90;;;;;;;0.50;87.05;97518.31;5074005;28;20040;-65
2023/12/28 06:14:43;;;;;;;1999.90;999.90;;;;;;;0.53;86.92;97521.75;5073928;28;20394;-66
2023/12/28 06:17:10;;;;;;;1999.90;999.90;;;;;;;0.54;87.33;97526.94;5073970;28;20049;-64
2023/12/28 06:19:37;;;;;;;1999.90;999.90;;;;;;;0.61;87.16;97530.50;5073541;28;20048;-66
2023/12/28 06:22:04;;;;;;;1999.90;999.90;;;;;;;0.70;86.96;97532.38;5073833;28;20625;-64
2023/12/28 06:24:31;;;;;;;1999.90;999.90;;;;;;;0.75;86.76;97528.16;5073912;28;20376;-65
2023/12/28 06:27:01;;;;;;;1999.90;999.90;;;;;;;0.94;87.96;97531.94;5073754;28;20051;-68
2023/12/28 06:29:28;;;;;;;1999.90;999.90;;;;;;;1.98;90.65;97521.31;5073758;28;20449;-67
2023/12/28 06:31:55;;;;;;;1999.90;999.90;;;;;;;3.70;84.34;97527.97;5073662;28;20052;-67
2023/12/28 06:34:22;;;;;;;1999.90;999.90;;;;;;;5.62;74.71;97534.28;5073655;28;20127;-67
2023/12/28 06:36:50;;;;;;;1999.90;999.90;;;;;;;7.36;64.28;97554.16;5073583;28;20044;-65
2023/12/28 06:39:18;;;;;;;1999.90;999.90;;;;;;;8.95;57.80;97560.16;5073664;28;20061;-63
2023/12/28 06:41:48;;;;;;;1999.90;999.90;;;;;;;10.46;52.93;97533.06;5073554;28;20052;-65
2023/12/28 06:44:17;;;;;;;1999.90;999.90;;;;;;;11.79;47.53;97537.72;5074010;28;20045;-68
2023/12/28 06:46:44;;;;;;;1999.90;999.90;;;;;;;12.97;45.76;97549.22;5073570;28;20044;-67
2023/12/28 06:49:15;;;;;;;1999.90;999.90;;;;;;;14.19;43.12;97547.81;5073412;28;20050;-64
2023/12/28 06:51:45;;;;;;;1999.90;999.90;;;;;;;15.24;40.99;97545.59;5073410;28;20044;-64
2023/12/28 06:54:12;;;;;;;1999.90;999.90;;;;;;;16.08;38.66;97549.13;5073416;28;20080;-63
2023/12/28 06:56:40;;;;;;;1999.90;999.90;;;;;;;16.72;37.19;97542.75;5073498;28;20052;-66
2023/12/28 06:59:11;;;;;;;1999.90;999.90;;;;;;;17.40;35.89;97555.34;5073215;28;20044;-62
2023/12/28 07:01:40;;;;;;;1999.90;999.90;;;;;;;18.12;34.20;97558.88;5072616;28;20102;-68
2023/12/28 07:04:08;;;;;;;1999.90;999.90;;;;;;;18.72;33.15;97559.22;5073473;28;20074;-63
2023/12/28 07:06:36;;;;;;;1999.90;999.90;;;;;;;19.20;32.22;97556.56;5073168;28;20048;-63
2023/12/28 07:09:04;;;;;;;1999.90;999.90;;;;;;;19.81;31.25;97561.06;5073181;28;20048;-65
2023/12/28 07:11:31;;;;;;;1999.90;999.90;;;;;;;20.19;30.76;97554.38;5073128;28;20090;-68
2023/12/28 07:13:59;;;;;;;1999.90;999.90;;;;;;;20.57;29.24;97560.94;5072956;28;20051;-68
2023/12/28 07:16:26;;;;;;;1999.90;999.90;;;;;;;20.86;29.38;97560.03;5073045;28;20392;-66
2023/12/28 07:18:55;;;;;;;1999.90;999.90;;;;;;;21.42;28.32;97569.75;5072671;28;20455;-68
2023/12/28 07:21:22;;;;;;;1999.90;999.90;;;;;;;21.80;27.63;97570.84;5072990;28;20051;-67
2023/12/28 07:23:50;;;;;;;1999.90;999.90;;;;;;;22.09;27.79;97565.31;5073082;28;20051;-67
2023/12/28 07:26:17;;;;;;;1999.90;999.90;;;;;;;22.43;26.88;97560.31;5073038;28;20048;-67
2023/12/28 07:28:48;;;;;;;1999.90;999.90;;;;;;;22.74;26.46;97564.44;5072995;28;20044;-69
2023/12/28 07:31:25;;;;;;;1999.90;999.90;;;;;;;22.63;26.91;97568.72;5072987;28;20049;-66
2023/12/28 07:33:52;;;;;;;1999.90;999.90;;;;;;;22.74;26.81;97567.13;5072845;28;20048;-68
2023/12/28 07:36:21;;;;;;;1999.90;999.90;;;;;;;23.00;26.64;97562.59;5073020;28;20051;-65
2023/12/28 07:38:49;;;;;;;1999.90;999.90;;;;;;;23.44;26.35;97562.94;5072858;28;20057;-66
2023/12/28 07:41:16;;;;;;;1999.90;999.90;;;;;;;23.81;26.12;97567.31;5072696;28;20098;-66
2023/12/28 07:43:46;;;;;;;1999.90;999.90;;;;;;;24.13;25.24;97573.84;5072732;28;20495;-67
2023/12/28 07:46:14;;;;;;;1999.90;999.90;;;;;;;24.52;24.76;97570.84;5072968;28;20064;-65
2023/12/28 07:48:42;;;;;;;1999.90;999.90;;;;;;;24.95;24.55;97568.44;5072777;28;20099;-67
2023/12/28 07:51:10;;;;;;;1999.90;999.90;;;;;;;25.19;23.79;97562.88;5072872;28;20040;-66
2023/12/28 07:53:39;;;;;;;1999.90;999.90;;;;;;;25.42;23.21;97570.84;5072699;28;20040;-66
2023/12/28 07:56:07;;;;;;;1999.90;999.90;;;;;;;25.54;22.90;97576.13;5072720;28;20095;-65
2023/12/28 07:58:37;;;;;;;1999.90;999.90;;;;;;;25.97;22.38;97577.91;5072629;28;20070;-65
2023/12/28 08:01:05;;;;;;;1999.90;999.90;;;;;;;26.40;22.53;97575.22;5072662;28;20048;-68
2023/12/28 08:03:32;;;;;;;1999.90;999.90;;;;;;;26.47;22.72;97575.53;5072680;28;20055;-65
2023/12/28 08:06:00;;;;;;;1999.90;999.90;;;;;;;26.43;22.36;97568.75;5072499;28;20114;-66
2023/12/28 08:08:28;;;;;;;1511.45;760.78;;;;;;;26.46;21.65;97569.31;5072584;28;20044;-66
2023/12/28 08:10:56;;;;;;;50.92;47.92;;;;;;;26.61;21.15;97567.09;5072658;28;20092;-64
2023/12/28 08:13:23;;;;;;;46.25;43.40;;;;;;;26.77;21.26;97567.59;5073863;28;20048;-67
2023/12/28 08:15:51;;;;;;;50.70;47.53;;;;;;;27.16;21.08;97569.56;5076292;28;20053;-66
2023/12/28 08:18:19;;;;;;;45.80;43.00;;;;;;;27.18;21.40;97575.66;5076267;28;20044;-67
2023/12/28 08:20:49;;;;;;;46.60;43.78;;;;;;;27.03;21.63;97570.66;5076007;28;20057;-63
2023/12/28 08:23:17;;;;;;;48.13;45.20;;;;;;;27.25;21.75;97569.59;5076208;28;20049;-67
2023/12/28 08:25:44;;;;;;;43.05;40.35;;;;;;;27.28;21.65;97573.81;5076112;28;20044;-67
2023/12/28 08:28:13;;;;;;;42.13;39.47;;;;;;;26.98;21.76;97581.81;5076068;28;20131;-63
2023/12/28 08:30:40;;;;;;;47.92;44.97;;;;;;;26.92;21.70;97576.09;5076070;28;20387;-64
2023/12/28 08:33:08;;;;;;;49.60;46.50;;;;;;;26.38;22.10;97574.50;5075951;28;20052;-67
2023/12/28 08:35:36;;;;;;;47.80;44.33;;;;;;;25.65;22.90;97568.09;5075858;28;20041;-66
2023/12/28 08:38:05;;;;;;;44.47;41.80;;;;;;;25.03;23.70;97559.75;5075912;28;20047;-62
2023/12/28 08:40:33;;;;;;;43.35;40.78;;;;;;;24.47;24.17;97551.66;5075814;28;20094;-63
2023/12/28 08:43:02;;;;;;;1999.90;999.90;;;;;;;23.75;25.50;97553.59;5075787;28;20106;-65
2023/12/28 08:45:31;;;;;;;1999.90;999.90;;;;;;;22.57;26.56;97543.38;5075741;28;20044;-65
2023/12/28 08:47:58;;;;;;;1999.90;999.90;;;;;;;21.76;27.84;97553.38;5075783;28;20094;-69
2023/12/28 08:50:27;;;;;;;1999.90;999.90;;;;;;;21.02;28.85;97541.31;5075814;28;20564;-66
2023/12/28 08:52:56;;;;;;;1999.90;999.90;;;;;;;20.87;29.10;97538.69;5075689;28;20483;-66
2023/12/28 08:55:23;;;;;;;1999.90;999.90;;;;;;;20.92;29.25;97530.44;5075546;28;20044;-65
2023/12/28 08:57:51;;;;;;;1999.90;999.90;;;;;;;20.86;28.54;97531.63;5075531;28;20049;-66
2023/12/28 09:00:19;;;;;;;1999.90;999.90;;;;;;;20.90;28.31;97529.66;5075536;28;20059;-66
2023/12/28 09:02:48;;;;;;;1999.90;999.90;;;;;;;20.92;28.04;97533.09;5075471;28;20047;-67
2023/12/28 09:05:14;;;;;;;1999.90;999.90;;;;;;;20.68;28.03;97526.56;5075420;28;20041;-67
2023/12/28 09:07:43;;;;;;;1999.90;999.90;;;;;;;19.87;29.92;97525.31;5075370;28;20044;-64
2023/12/28 09:10:11;;;;;;;1999.90;999.90;;;;;;;18.94;31.50;97521.78;5075431;28;20044;-66
2023/12/28 09:12:39;;;;;;;1999.90;999.90;;;;;;;18.19;32.61;97502.00;5075329;28;20051;-64
2023/12/28 09:15:07;;;;;;;1999.90;999.90;;;;;;;17.32;33.89;97509.94;5075109;28;20090;-65
2023/12/28 09:17:35;;;;;;;1999.90;999.90;;;;;;;16.72;34.63;97503.13;5075133;28;20045;-64
2023/12/28 09:20:06;;;;;;;1999.90;999.90;;;;;;;16.22;36.16;97500.97;5074948;28;20060;-67
2023/12/28 09:22:33;;;;;;;1999.90;999.90;;;;;;;15.70;37.08;97497.09;5075065;28;20055;-64
2023/12/28 09:25:00;;;;;;;1999.90;999.90;;;;;;;15.33;38.13;97491.63;5074461;28;20048;-69
2023/12/28 09:27:27;;;;;;;1999.90;999.90;;;;;;;15.25;37.76;97493.72;5075078;28;20135;-68
2023/12/28 09:29:56;;;;;;;1999.90;999.90;;;;;;;15.10;38.41;97484.66;5074988;28;20044;-65
2023/12/28 09:32:23;;;;;;;1999.90;999.90;;;;;;;15.24;38.27;97484.09;5074978;28;20057;-67
2023/12/28 09:34:50;;;;;;;1999.90;999.90;;;;;;;15.29;38.48;97461.03;5074692;28;20044;-65
2023/12/28 09:37:19;;;;;;;1999.90;999.90;;;;;;;15.32;38.32;97467.97;5074742;28;20052;-67
2023/12/28 09:39:46;;;;;;;1999.90;999.90;;;;;;;15.30;37.68;97457.47;5074725;28;20048;-66
2023/12/28 09:42:18;;;;;;;1999.90;999.90;;;;;;;15.25;37.67;97456.81;5074756;28;20453;-68
2023/12/28 09:44:46;;;;;;;1999.90;999.90;;;;;;;15.17;37.86;97465.03;5074666;28;20045;-67
2023/12/28 09:47:14;;;;;;;1999.90;999.90;;;;;;;15.12;36.96;97457.34;5074583;28;20072;-65
2023/12/28 09:49:44;;;;;;;1999.90;999.90;;;;;;;14.87;38.41;97460.13;5074622;28;20045;-66
2023/12/28 09:52:12;;;;;;;1999.90;999.90;;;;;;;14.82;38.85;97455.06;5074450;28;20075;-68
2023/12/28 09:54:41;;;;;;;1999.90;999.90;;;;;;;14.79;38.57;97447.28;5074295;28;20045;-69
2023/12/28 09:57:10;;;;;;;1999.90;999.90;;;;;;;14.89;37.98;97445.09;5074327;28;20044;-66
2023/12/28 09:59:39;;;;;;;1999.90;999.90;;;;;;;14.71;38.32;97442.28;5074258;28;20094;-66
2023/12/28 10:02:06;;;;;;;1999.90;999.90;;;;;;;14.80;38.42;97435.81;5074306;28;20490;-68
2023/12/28 10:04:33;;;;;;;1999.90;999.90;;;;;;;14.76;38.57;97436.84;5074377;28;20094;-68
2023/12/28 10:07:01;;;;;;;1999.90;999.90;;;;;;;14.78;38.51;97432.41;5074121;28;20441;-67
2023/12/28 10:09:30;;;;;;;1999.90;999.90;;;;;;;14.85;38.18;97427.72;5074184;28;20049;-69
2023/12/28 10:11:59;;;;;;;1999.90;999.90;;;;;;;14.65;39.91;97424.09;5074133;28;20047;-67
2023/12/28 10:14:27;;;;;;;1999.90;999.90;;;;;;;14.46;41.29;97424.84;5074086;28;20550;-67
2023/12/28 10:16:54;;;;;;;1999.90;999.90;;;;;;;14.36;40.66;97428.75;5073822;28;20056;-68
2023/12/28 10:19:23;;;;;;;1999.90;999.90;;;;;;;14.36;40.23;97424.34;5073773;28;20449;-66
2023/12/28 10:21:51;;;;;;;1999.90;999.90;;;;;;;14.54;40.18;97413.97;5073936;28;20041;-66
2023/12/28 10:24:18;;;;;;;1999.90;999.90;;;;;;;14.39;40.46;97402.31;5073960;28;20044;-67
2023/12/28 10:26:45;;;;;;;1999.90;999.90;;;;;;;14.36;39.47;97390.13;5073872;28;20059;-65
2023/12/28 10:29:15;;;;;;;1999.90;999.90;;;;;;;14.37;39.80;97394.50;5073766;28;20051;-63
2023/12/28 10:31:49;;;;;;;1999.90;999.90;;;;;;;14.31;40.02;97388.59;5073698;28;20063;-64
2023/12/28 10:34:16;;;;;;;1999.90;999.90;;;;;;;14.37;40.01;97385.72;5073712;28;20087;-64
2023/12/28 10:36:44;;;;;;;1999.90;999.90;;;;;;;14.36;40.15;97381.38;5072685;28;20418;-66
2023/12/28 10:39:13;;;;;;;1999.90;999.90;;;;;;;14.34;40.21;97377.94;5073666;28;20052;-68
2023/12/28 10:41:46;;;;;;;1999.90;999.90;;;;;;;14.26;39.92;97373.84;5073632;28;20128;-67
2023/12/28 10:44:20;;;;;;;1999.90;999.90;;;;;;;14.35;40.85;97363.84;5073435;28;20102;-65
2023/12/28 10:46:52;;;;;;;1999.90;999.90;;;;;;;14.34;41.75;97356.91;5073486;28;20055;-65
2023/12/28 10:49:26;;;;;;;1999.90;999.90;;;;;;;14.34;40.49;97356.91;5073449;28;20049;-68
2023/12/28 10:51:53;;;;;;;1999.90;999.90;;;;;;;14.28;40.72;97344.84;5073550;28;20449;-64
2023/12/28 10:54:32;;;;;;;1999.90;999.90;;;;;;;14.31;41.23;97344.72;5073376;28;20044;-66
2023/12/28 10:57:07;;;;;;;1999.90;999.90;;;;;;;14.23;41.49;97344.16;5073241;28;20049;-66
2023/12/28 10:59:47;;;;;;;1999.90;999.90;;;;;;;14.21;42.09;97341.59;5073252;28;20561;-68
2023/12/28 11:02:21;;;;;;;1999.90;999.90;;;;;;;14.28;41.67;97350.97;5073258;28;20040;-66